createdAt,value
2019-02-27T00:00:33.182Z,23.23
2019-02-27T00:03:01.742Z,22.67
2019-02-27T00:05:30.130Z,22.30
2019-02-27T00:07:58.531Z,23.57
2019-02-27T00:10:26.942Z,21.63
2019-02-27T00:12:55.336Z,26.87
2019-02-27T00:15:23.804Z,23.87
2019-02-27T00:17:52.208Z,21.03
2019-02-27T00:20:20.612Z,20.43
2019-02-27T00:22:50.749Z,22.77
2019-02-27T00:25:19.207Z,23.90
2019-02-27T00:27:49.154Z,22.43
2019-02-27T00:30:17.723Z,22.97
2019-02-27T00:32:46.205Z,22.30
2019-02-27T00:35:14.602Z,21.27
2019-02-27T00:37:42.996Z,24.40
2019-02-27T00:40:11.534Z,24.53
2019-02-27T00:42:39.932Z,22.13
2019-02-27T00:45:10.187Z,25.33
2019-02-27T00:47:38.575Z,25.20
2019-02-27T00:50:10.339Z,27.47
2019-02-27T00:52:38.753Z,26.77
2019-02-27T00:55:08.599Z,23.03
2019-02-27T00:57:37.004Z,26.97
2019-02-27T01:00:15.131Z,22.60
2019-02-27T01:02:43.535Z,22.33
2019-02-27T01:05:12.384Z,20.20
2019-02-27T01:07:40.968Z,23.77
2019-02-27T01:10:12.293Z,21.97
2019-02-27T01:12:41.451Z,22.03
2019-02-27T01:15:11.608Z,28.67
2019-02-27T01:17:39.996Z,21.57
2019-02-27T01:20:13.746Z,22.57
2019-02-27T01:22:42.155Z,24.37
2019-02-27T01:25:10.617Z,23.33
2019-02-27T01:27:39.080Z,23.77
2019-02-27T01:30:10.884Z,20.43
2019-02-27T01:32:39.345Z,21.50
2019-02-27T01:35:09.585Z,20.43
2019-02-27T01:37:38.020Z,21.93
2019-02-27T01:40:09.492Z,25.13
2019-02-27T01:42:37.894Z,19.60
2019-02-27T01:45:09.732Z,23.30
2019-02-27T01:47:38.132Z,21.17
2019-02-27T01:50:24.702Z,22.23
2019-02-27T01:52:53.107Z,20.17
2019-02-27T01:55:22.448Z,19.03
2019-02-27T01:57:51.068Z,21.23
2019-02-27T02:00:23.004Z,20.67
2019-02-27T02:02:49.688Z,21.63
2019-02-27T02:05:18.162Z,19.43
2019-02-27T02:07:47.806Z,20.13
2019-02-27T02:10:16.429Z,20.60
2019-02-27T02:12:53.359Z,24.07
2019-02-27T02:15:33.693Z,18.70
2019-02-27T02:18:24.641Z,19.53
2019-02-27T02:21:14.186Z,19.73
2019-02-27T02:24:11.485Z,18.73
2019-02-27T02:26:48.641Z,18.13
2019-02-27T02:29:35.240Z,18.67
2019-02-27T02:32:21.736Z,19.10
2019-02-27T02:34:56.177Z,19.83
2019-02-27T02:37:33.733Z,17.83
2019-02-27T02:40:30.784Z,17.57
2019-02-27T02:43:19.104Z,22.03
2019-02-27T02:45:53.142Z,18.70
2019-02-27T02:48:39.675Z,20.47
2019-02-27T02:51:29.951Z,19.73
2019-02-27T02:54:23.140Z,27.47
2019-02-27T02:57:13.947Z,18.63
2019-02-27T02:59:59.866Z,18.83
2019-02-27T03:02:36.382Z,20.83
2019-02-27T03:05:31.384Z,22.20
2019-02-27T03:08:09.288Z,17.27
2019-02-27T03:10:49.830Z,17.83
2019-02-27T03:13:42.036Z,18.90
2019-02-27T03:16:12.644Z,20.87
2019-02-27T03:18:56.391Z,19.77
2019-02-27T03:21:28.925Z,18.33
2019-02-27T03:24:14.886Z,18.20
2019-02-27T03:27:09.884Z,18.10
2019-02-27T03:29:51.983Z,18.60
2019-02-27T03:32:23.463Z,17.87
2019-02-27T03:34:54.999Z,19.53
2019-02-27T03:37:26.827Z,20.43
2019-02-27T03:40:19.459Z,17.63
2019-02-27T03:43:14.790Z,17.30
2019-02-27T03:46:03.000Z,17.63
2019-02-27T03:48:50.968Z,19.67
2019-02-27T03:51:31.144Z,18.13
2019-02-27T03:54:11.576Z,16.17
2019-02-27T03:57:07.237Z,19.23
2019-02-27T03:59:42.494Z,16.13
2019-02-27T04:02:38.848Z,18.33
2019-02-27T04:05:30.565Z,20.37
2019-02-27T04:08:10.895Z,16.27
2019-02-27T04:10:39.294Z,18.07
2019-02-27T04:13:07.687Z,16.17
2019-02-27T04:15:36.143Z,15.80
2019-02-27T04:18:03.506Z,15.60
2019-02-27T04:20:31.913Z,17.20
2019-02-27T04:23:00.309Z,20.07
2019-02-27T04:25:31.381Z,15.47
2019-02-27T04:27:58.852Z,16.67
2019-02-27T04:30:27.271Z,18.87
2019-02-27T04:32:55.668Z,15.90
2019-02-27T04:35:24.065Z,15.30
2019-02-27T04:37:54.292Z,14.87
2019-02-27T04:40:22.591Z,16.33
2019-02-27T04:42:50.979Z,18.50
2019-02-27T04:45:19.628Z,17.67
2019-02-27T04:47:48.044Z,16.93
2019-02-27T04:50:16.439Z,15.17
2019-02-27T04:52:44.836Z,15.10
2019-02-27T04:55:15.746Z,13.93
2019-02-27T04:57:43.429Z,17.63
2019-02-27T05:00:12.027Z,16.20
2019-02-27T05:02:40.430Z,17.37
2019-02-27T05:05:09.326Z,19.17
2019-02-27T05:07:37.785Z,19.93
2019-02-27T05:10:08.290Z,18.37
2019-02-27T05:12:36.693Z,16.70
2019-02-27T05:15:07.233Z,16.63
2019-02-27T05:17:35.631Z,15.53
2019-02-27T05:20:06.057Z,18.03
2019-02-27T05:22:34.472Z,15.70
2019-02-27T05:25:02.938Z,18.67
2019-02-27T05:27:31.357Z,18.53
2019-02-27T05:30:00.128Z,16.60
2019-02-27T05:32:28.900Z,17.57
2019-02-27T05:34:57.310Z,15.07
2019-02-27T05:37:25.726Z,17.63
2019-02-27T05:39:54.127Z,15.03
2019-02-27T05:42:22.524Z,15.47
2019-02-27T05:44:55.537Z,16.70
2019-02-27T05:47:21.608Z,16.67
2019-02-27T05:49:50.021Z,18.83
2019-02-27T05:52:18.428Z,17.37
2019-02-27T05:54:46.844Z,16.70
2019-02-27T05:57:15.243Z,15.47
2019-02-27T05:59:43.662Z,14.23
2019-02-27T06:02:12.061Z,21.90
2019-02-27T06:04:40.455Z,16.47
2019-02-27T06:07:08.884Z,17.97
2019-02-27T06:09:37.301Z,15.30
2019-02-27T06:12:06.839Z,14.77
2019-02-27T06:14:35.988Z,15.53
2019-02-27T06:17:04.384Z,15.83
2019-02-27T06:19:33.748Z,15.13
2019-02-27T06:22:02.775Z,20.80
2019-02-27T06:24:31.167Z,18.67
2019-02-27T06:26:59.588Z,17.67
2019-02-27T06:29:28.372Z,20.30
2019-02-27T06:31:56.794Z,19.67
2019-02-27T06:34:25.434Z,19.20
2019-02-27T06:36:53.875Z,18.27
2019-02-27T06:39:22.275Z,17.00
2019-02-27T06:41:50.672Z,16.83
2019-02-27T06:44:19.215Z,13.87
2019-02-27T06:46:47.692Z,16.57
2019-02-27T06:49:18.247Z,18.20
2019-02-27T06:51:46.226Z,16.10
2019-02-27T06:54:18.122Z,18.10
2019-02-27T06:56:44.779Z,16.90
2019-02-27T06:59:13.178Z,17.50
2019-02-27T07:01:41.587Z,21.00
2019-02-27T07:04:09.995Z,18.27
2019-02-27T07:06:38.403Z,20.00
2019-02-27T07:09:11.422Z,19.87
2019-02-27T07:11:37.529Z,19.67
2019-02-27T07:14:06.034Z,16.63
2019-02-27T07:16:34.419Z,20.97
2019-02-27T07:19:02.835Z,24.83
2019-02-27T07:21:32.841Z,19.90
2019-02-27T07:24:01.391Z,20.67
2019-02-27T07:26:29.811Z,22.03
2019-02-27T07:28:58.233Z,26.10
2019-02-27T07:31:26.616Z,25.33
2019-02-27T07:33:55.022Z,24.50
2019-02-27T07:36:23.454Z,26.97
2019-02-27T07:38:54.359Z,22.57
2019-02-27T07:41:23.516Z,32.57
2019-02-27T07:43:51.933Z,26.57
2019-02-27T07:46:22.430Z,35.73
2019-02-27T07:48:50.460Z,23.10
2019-02-27T07:51:20.790Z,29.17
2019-02-27T07:53:51.469Z,24.87
2019-02-27T07:56:19.240Z,24.43
2019-02-27T07:58:47.659Z,23.33
2019-02-27T08:01:16.062Z,27.63
2019-02-27T08:03:45.565Z,37.87
2019-02-27T08:06:14.389Z,32.47
2019-02-27T08:08:42.789Z,31.20
2019-02-27T08:11:13.252Z,19.73
2019-02-27T08:13:41.324Z,19.23
2019-02-27T08:16:09.751Z,20.37
2019-02-27T08:18:38.320Z,14.83
2019-02-27T08:21:07.335Z,16.00
2019-02-27T08:23:35.793Z,22.90
2019-02-27T08:26:05.177Z,10.90
2019-02-27T08:28:34.203Z,16.77
2019-02-27T08:31:02.610Z,15.57
2019-02-27T08:33:31.008Z,12.80
2019-02-27T08:35:59.440Z,14.80
2019-02-27T08:38:27.840Z,17.67
2019-02-27T08:40:58.301Z,14.40
2019-02-27T08:43:26.356Z,16.13
2019-02-27T08:45:54.835Z,14.90
2019-02-27T08:48:23.224Z,10.17
2019-02-27T08:50:52.928Z,18.93
2019-02-27T08:53:26.045Z,13.50
2019-02-27T08:55:51.478Z,13.77
2019-02-27T08:58:19.881Z,13.03
2019-02-27T09:00:48.484Z,12.63
2019-02-27T09:03:20.399Z,16.70
2019-02-27T09:05:47.352Z,13.43
2019-02-27T09:08:15.767Z,11.80
2019-02-27T09:10:44.159Z,10.37
2019-02-27T09:13:12.568Z,11.77
2019-02-27T09:15:41.789Z,13.83
2019-02-27T09:18:10.295Z,14.93
2019-02-27T09:20:38.697Z,12.93
2019-02-27T09:23:07.109Z,14.13
2019-02-27T09:25:35.511Z,12.03
2019-02-27T09:28:08.994Z,12.03
2019-02-27T09:30:34.088Z,12.73
2019-02-27T09:33:02.488Z,11.87
2019-02-27T09:35:33.325Z,13.07
2019-02-27T09:38:01.023Z,14.93
2019-02-27T09:40:30.016Z,13.33
2019-02-27T09:42:58.609Z,13.43
2019-02-27T09:45:34.878Z,11.60
2019-02-27T09:48:04.163Z,10.77
2019-02-27T09:50:34.868Z,9.70
2019-02-27T09:53:04.308Z,10.63
2019-02-27T09:55:32.950Z,7.43
2019-02-27T09:58:01.731Z,7.25
2019-02-27T10:00:35.938Z,5.85
2019-02-27T10:03:04.496Z,8.10
2019-02-27T10:05:36.433Z,5.28
2019-02-27T10:08:03.229Z,8.45
2019-02-27T10:10:31.687Z,7.15
2019-02-27T10:13:03.303Z,6.20
2019-02-27T10:15:30.340Z,13.10
2019-02-27T10:17:58.744Z,11.63
2019-02-27T10:20:27.144Z,10.38
2019-02-27T10:22:55.550Z,10.65
2019-02-27T10:25:23.955Z,9.85
2019-02-27T10:27:52.352Z,8.50
2019-02-27T10:30:20.900Z,11.43
2019-02-27T10:32:49.307Z,12.83
2019-02-27T10:35:17.771Z,9.05
2019-02-27T10:37:50.315Z,10.80
2019-02-27T10:40:25.796Z,11.48
2019-02-27T10:42:54.214Z,14.05
2019-02-27T10:45:22.760Z,6.58
2019-02-27T10:47:51.235Z,10.88
2019-02-27T10:50:19.636Z,8.93
2019-02-27T10:52:49.940Z,11.93
2019-02-27T10:55:19.188Z,10.15
2019-02-27T10:57:47.756Z,8.08
2019-02-27T11:00:29.090Z,7.37
2019-02-27T11:02:58.052Z,9.58
2019-02-27T11:05:31.269Z,9.73
2019-02-27T11:07:59.741Z,9.90
2019-02-27T11:10:28.273Z,8.38
2019-02-27T11:12:56.700Z,15.13
2019-02-27T11:15:25.185Z,11.97
2019-02-27T11:17:53.678Z,9.53
2019-02-27T11:20:23.945Z,7.22
2019-02-27T11:22:52.274Z,9.33
2019-02-27T11:25:28.926Z,8.17
2019-02-27T11:27:57.492Z,9.17
2019-02-27T11:30:36.720Z,9.18
2019-02-27T11:33:05.110Z,8.97
2019-02-27T11:35:33.520Z,9.80
2019-02-27T11:38:01.974Z,10.63
2019-02-27T11:40:30.429Z,9.03
2019-02-27T11:43:00.939Z,9.00
2019-02-27T11:45:29.031Z,12.03
2019-02-27T11:47:57.445Z,7.63
2019-02-27T11:50:25.867Z,8.80
2019-02-27T11:52:54.655Z,8.30
2019-02-27T11:55:24.441Z,7.63
2019-02-27T11:57:53.260Z,9.63
2019-02-27T12:00:29.847Z,8.30
2019-02-27T12:02:58.988Z,11.10
2019-02-27T12:05:33.687Z,7.60
2019-02-27T12:07:58.361Z,9.23
2019-02-27T12:10:31.368Z,9.48
2019-02-27T12:13:01.408Z,5.90
2019-02-27T12:15:30.236Z,5.33
2019-02-27T12:18:00.468Z,12.28
2019-02-27T12:20:28.983Z,8.90
2019-02-27T12:22:57.365Z,6.20
2019-02-27T12:25:29.088Z,8.83
2019-02-27T12:27:57.060Z,6.70
2019-02-27T12:30:29.970Z,7.13
2019-02-27T12:32:58.516Z,8.15
2019-02-27T12:35:29.558Z,7.45
2019-02-27T12:37:58.027Z,9.07
2019-02-27T12:40:26.765Z,5.27
2019-02-27T12:42:55.235Z,9.35
2019-02-27T12:45:29.516Z,8.30
2019-02-27T12:47:57.791Z,6.05
2019-02-27T12:50:31.408Z,7.60
2019-02-27T12:53:00.237Z,8.50
2019-02-27T12:55:28.756Z,9.55
2019-02-27T12:57:57.591Z,6.15
2019-02-27T13:00:30.397Z,5.47
2019-02-27T13:02:59.343Z,6.35
2019-02-27T13:05:28.804Z,4.30
2019-02-27T13:07:57.681Z,6.73
2019-02-27T13:10:27.024Z,6.55
2019-02-27T13:12:55.684Z,6.95
2019-02-27T13:15:30.493Z,5.72
2019-02-27T13:17:58.892Z,5.40
2019-02-27T13:20:28.616Z,7.20
2019-02-27T13:22:57.017Z,6.67
2019-02-27T13:25:25.500Z,5.83
2019-02-27T13:27:53.956Z,6.97
2019-02-27T13:30:24.044Z,9.03
2019-02-27T13:32:52.527Z,5.43
2019-02-27T13:35:23.158Z,7.05
2019-02-27T13:37:51.632Z,8.60
2019-02-27T13:40:24.669Z,8.03
2019-02-27T13:42:53.740Z,4.20
2019-02-27T13:45:25.090Z,6.53
2019-02-27T13:47:53.580Z,3.75
2019-02-27T13:50:24.484Z,4.35
2019-02-27T13:52:52.521Z,6.87
2019-02-27T13:55:22.186Z,4.60
2019-02-27T13:57:50.574Z,7.05
2019-02-27T14:00:36.618Z,5.40
2019-02-27T14:03:05.250Z,7.67
2019-02-27T14:05:36.011Z,6.97
2019-02-27T14:08:03.890Z,6.83
2019-02-27T14:10:33.623Z,5.47
2019-02-27T14:13:02.027Z,7.00
2019-02-27T14:15:31.625Z,5.60
2019-02-27T14:18:00.391Z,6.43
2019-02-27T14:20:29.201Z,6.23
2019-02-27T14:22:57.890Z,6.60
2019-02-27T14:25:33.548Z,4.90
2019-02-27T14:28:02.831Z,8.00
2019-02-27T14:30:43.043Z,5.83
2019-02-27T14:33:11.455Z,7.17
2019-02-27T14:35:39.867Z,8.53
2019-02-27T14:38:08.287Z,5.93
2019-02-27T14:40:40.040Z,5.50
2019-02-27T14:43:07.470Z,4.63
2019-02-27T14:45:39.495Z,9.57
2019-02-27T14:48:06.169Z,6.20
2019-02-27T14:50:34.813Z,5.50
2019-02-27T14:53:03.342Z,8.10
2019-02-27T14:55:31.808Z,8.17
2019-02-27T14:58:00.204Z,9.10
2019-02-27T15:00:30.716Z,8.23
2019-02-27T15:02:59.167Z,6.97
2019-02-27T15:05:27.708Z,8.93
2019-02-27T15:07:56.115Z,6.20
2019-02-27T15:10:24.837Z,8.60
2019-02-27T15:12:55.168Z,6.57
2019-02-27T15:15:31.734Z,6.87
2019-02-27T15:18:00.560Z,5.57
2019-02-27T15:20:30.112Z,7.00
2019-02-27T15:22:58.663Z,9.13
2019-02-27T15:25:27.926Z,8.27
2019-02-27T15:27:58.700Z,7.60
2019-02-27T15:30:29.254Z,7.17
2019-02-27T15:33:00.899Z,8.00
2019-02-27T15:35:28.478Z,9.37
2019-02-27T15:37:56.911Z,6.00
2019-02-27T15:40:30.080Z,5.70
2019-02-27T15:42:58.792Z,9.10
2019-02-27T15:45:28.567Z,14.90
2019-02-27T15:47:57.309Z,8.03
2019-02-27T15:50:28.037Z,13.83
2019-02-27T15:52:56.440Z,15.43
2019-02-27T15:55:24.921Z,11.83
2019-02-27T15:57:54.202Z,12.27
2019-02-27T16:00:24.131Z,7.20
2019-02-27T16:02:52.635Z,8.73
2019-02-27T16:05:21.199Z,13.07
2019-02-27T16:07:49.864Z,14.80
2019-02-27T16:10:25.642Z,16.57
2019-02-27T16:12:54.059Z,17.60
2019-02-27T16:15:23.271Z,9.90
2019-02-27T16:17:52.244Z,19.13
2019-02-27T16:20:28.017Z,12.77
2019-02-27T16:22:56.825Z,12.73
2019-02-27T16:25:28.879Z,10.60
2019-02-27T16:27:57.350Z,12.60
2019-02-27T16:30:32.482Z,13.03
2019-02-27T16:33:00.804Z,10.47
2019-02-27T16:35:29.548Z,29.73
2019-02-27T16:37:58.049Z,16.47
2019-02-27T16:40:29.287Z,12.23
2019-02-27T16:42:57.668Z,10.97
2019-02-27T16:45:36.823Z,10.37
2019-02-27T16:48:05.610Z,8.53
2019-02-27T16:50:35.855Z,10.17
2019-02-27T16:53:04.266Z,15.97
2019-02-27T16:55:35.609Z,13.60
2019-02-27T16:58:03.354Z,14.30
2019-02-27T17:00:36.856Z,17.53
2019-02-27T17:03:05.382Z,11.30
2019-02-27T17:05:33.788Z,8.17
2019-02-27T17:08:02.920Z,14.47
2019-02-27T17:10:38.514Z,15.50
2019-02-27T17:13:06.902Z,11.77
2019-02-27T17:15:36.402Z,16.43
2019-02-27T17:18:05.168Z,16.27
2019-02-27T17:20:33.608Z,17.57
2019-02-27T17:23:06.822Z,22.30
2019-02-27T17:25:33.343Z,12.83
2019-02-27T17:28:03.318Z,14.23
2019-02-27T17:30:36.218Z,16.43
2019-02-27T17:33:05.251Z,18.13
2019-02-27T17:35:33.839Z,17.27
2019-02-27T17:38:02.295Z,16.63
2019-02-27T17:40:36.668Z,11.27
2019-02-27T17:43:01.277Z,10.30
2019-02-27T17:45:29.858Z,12.93
2019-02-27T17:47:58.359Z,16.30
2019-02-27T17:50:31.374Z,10.17
2019-02-27T17:52:57.252Z,12.30
2019-02-27T17:55:25.672Z,13.90
2019-02-27T17:57:57.979Z,12.20
2019-02-27T18:00:28.658Z,10.77
2019-02-27T18:02:57.108Z,19.00
2019-02-27T18:05:26.162Z,14.37
2019-02-27T18:07:54.760Z,12.07
2019-02-27T18:10:23.283Z,11.97
2019-02-27T18:12:51.791Z,9.97
2019-02-27T18:15:21.936Z,11.67
2019-02-27T18:17:50.537Z,9.30
2019-02-27T18:20:24.161Z,15.90
2019-02-27T18:22:50.453Z,13.47
2019-02-27T18:25:19.651Z,14.13
2019-02-27T18:27:48.852Z,10.63
2019-02-27T18:30:21.957Z,16.37
2019-02-27T18:32:50.510Z,17.93
2019-02-27T18:35:19.807Z,15.73
2019-02-27T18:37:53.224Z,15.87
2019-02-27T18:40:19.536Z,13.03
2019-02-27T18:42:47.985Z,10.90
2019-02-27T18:45:20.968Z,12.03
2019-02-27T18:47:49.388Z,12.73
2019-02-27T18:50:17.971Z,11.70
2019-02-27T18:52:46.400Z,14.70
2019-02-27T18:55:15.360Z,14.30
2019-02-27T18:57:47.252Z,13.33
2019-02-27T19:00:22.397Z,11.63
2019-02-27T19:02:55.981Z,13.43
2019-02-27T19:05:24.404Z,13.77
2019-02-27T19:07:55.057Z,11.40
2019-02-27T19:10:23.974Z,11.57
2019-02-27T19:12:52.455Z,12.70
2019-02-27T19:15:23.208Z,10.03
2019-02-27T19:17:51.963Z,11.87
2019-02-27T19:20:24.833Z,12.10
2019-02-27T19:22:53.200Z,9.80
2019-02-27T19:25:21.683Z,13.43
2019-02-27T19:27:50.657Z,16.23
2019-02-27T19:30:20.113Z,10.63
2019-02-27T19:32:49.307Z,13.80
2019-02-27T19:35:21.298Z,12.13
2019-02-27T19:37:49.183Z,10.43
2019-02-27T19:40:19.804Z,10.60
2019-02-27T19:43:06.133Z,14.67
2019-02-27T19:45:35.771Z,10.73
2019-02-27T19:48:04.838Z,12.67
2019-02-27T19:50:33.491Z,8.57
2019-02-27T19:53:05.126Z,9.37
2019-02-27T19:55:32.176Z,9.97
2019-02-27T19:58:01.500Z,8.30
2019-02-27T20:00:35.063Z,9.20
2019-02-27T20:03:02.443Z,9.27
2019-02-27T20:05:31.003Z,8.30
2019-02-27T20:07:59.635Z,7.90
2019-02-27T20:10:30.180Z,10.77
2019-02-27T20:12:58.448Z,11.37
2019-02-27T20:15:27.189Z,9.07
2019-02-27T20:17:55.732Z,10.77
2019-02-27T20:20:25.116Z,9.67
2019-02-27T20:22:54.846Z,9.90
2019-02-27T20:25:25.874Z,8.60
2019-02-27T20:27:57.856Z,8.23
2019-02-27T20:30:25.218Z,8.83
2019-02-27T20:32:53.814Z,10.70
2019-02-27T20:35:22.350Z,8.90
2019-02-27T20:37:50.794Z,8.07
2019-02-27T20:40:20.333Z,7.70
2019-02-27T20:42:51.433Z,8.20
2019-02-27T20:45:22.899Z,10.43
2019-02-27T20:47:57.695Z,7.87
2019-02-27T20:50:34.811Z,15.20
2019-02-27T20:53:02.130Z,10.93
2019-02-27T20:55:31.759Z,10.97
2019-02-27T20:58:00.379Z,10.60
2019-02-27T21:00:28.927Z,9.67
2019-02-27T21:02:57.420Z,11.13
2019-02-27T21:05:26.179Z,10.63
2019-02-27T21:07:57.581Z,11.33
2019-02-27T21:10:29.298Z,9.53
2019-02-27T21:12:57.724Z,11.63
2019-02-27T21:15:29.313Z,9.10
2019-02-27T21:17:58.470Z,9.60
2019-02-27T21:20:27.204Z,9.30
2019-02-27T21:22:55.690Z,8.43
2019-02-27T21:25:24.165Z,8.07
2019-02-27T21:27:52.578Z,10.40
2019-02-27T21:30:22.408Z,10.57
2019-02-27T21:32:51.040Z,11.83
2019-02-27T21:35:19.621Z,8.87
2019-02-27T21:37:48.115Z,9.13
2019-02-27T21:40:17.468Z,10.90
2019-02-27T21:42:45.952Z,12.20
2019-02-27T21:45:17.443Z,9.43
2019-02-27T21:47:46.008Z,10.07
2019-02-27T21:50:22.826Z,10.27
2019-02-27T21:52:54.372Z,13.70
2019-02-27T21:55:21.761Z,12.17
2019-02-27T21:57:50.170Z,10.80
2019-02-27T22:00:22.064Z,12.93
2019-02-27T22:02:50.722Z,11.43
2019-02-27T22:05:19.771Z,13.13
2019-02-27T22:07:48.565Z,12.80
2019-02-27T22:10:19.477Z,9.43
2019-02-27T22:12:47.796Z,15.17
2019-02-27T22:15:29.755Z,10.73
2019-02-27T22:17:58.231Z,14.23
2019-02-27T22:20:27.047Z,11.83
2019-02-27T22:22:55.575Z,12.33
2019-02-27T22:25:23.966Z,16.33
2019-02-27T22:27:52.397Z,11.40
2019-02-27T22:30:21.867Z,10.40
2019-02-27T22:32:50.358Z,12.80
2019-02-27T22:35:19.014Z,14.93
2019-02-27T22:37:51.297Z,12.20
2019-02-27T22:40:22.026Z,11.83
2019-02-27T22:42:50.446Z,11.17
2019-02-27T22:45:20.087Z,11.37
2019-02-27T22:47:49.552Z,9.90
2019-02-27T22:50:20.371Z,11.63
2019-02-27T22:52:54.248Z,12.97
2019-02-27T22:55:19.438Z,13.23
2019-02-27T22:57:47.856Z,10.93
2019-02-27T23:00:26.824Z,10.77
2019-02-27T23:02:55.362Z,10.10
2019-02-27T23:05:23.773Z,12.67
2019-02-27T23:07:52.450Z,13.07
2019-02-27T23:10:20.944Z,12.40
2019-02-27T23:12:49.399Z,14.57
2019-02-27T23:15:17.986Z,14.00
2019-02-27T23:17:46.419Z,14.93
2019-02-27T23:20:17.513Z,16.73
2019-02-27T23:22:45.086Z,13.73
2019-02-27T23:25:15.644Z,15.53
2019-02-27T23:27:43.637Z,19.50
2019-02-27T23:30:15.967Z,17.70
2019-02-27T23:32:42.763Z,16.13
2019-02-27T23:35:15.696Z,17.60
2019-02-27T23:37:41.300Z,15.90
2019-02-27T23:40:09.853Z,19.47
2019-02-27T23:42:38.260Z,18.33
2019-02-27T23:45:10.161Z,23.33
2019-02-27T23:47:38.866Z,18.77
2019-02-27T23:50:11.125Z,19.70
2019-02-27T23:52:40.564Z,17.03
2019-02-27T23:55:10.144Z,19.30
2019-02-27T23:57:39.232Z,19.90
